Time;durP1;ratioP1;P1;durP2;ratioP2;P2;SDS_P1;SDS_P2;PMS_P1;PMS_P2;Temp;Humidity;BMP_temperature;BMP_pressure;BME280_temperature;BME280_humidity;BME280_pressure;Samples;Min_cycle;Max_cycle;Signal;HPM_P1;HPM_P2
2022/04/22 00:01:55;;;;;;;1.60;0.90;;;9.50;99.90;;;;;;5027316;28;20136;-58
2022/04/22 00:04:22;;;;;;;0.70;0.65;;;9.50;99.90;;;;;;5029332;28;20156;-59
2022/04/22 00:06:49;;;;;;;1.13;0.60;;;9.60;99.90;;;;;;5028854;28;20477;-58
2022/04/22 00:09:15;;;;;;;1.38;0.80;;;9.50;99.90;;;;;;5031713;28;20123;-58
2022/04/22 00:11:43;;;;;;;1.58;0.80;;;9.50;99.90;;;;;;5032810;28;20085;-59
2022/04/22 00:14:10;;;;;;;1.10;0.77;;;9.50;99.90;;;;;;5027541;28;20045;-59
2022/04/22 00:16:36;;;;;;;0.70;0.70;;;9.50;99.90;;;;;;5024898;28;20072;-57
2022/04/22 00:19:03;;;;;;;3.35;0.95;;;9.50;99.90;;;;;;5028627;28;20049;-57
2022/04/22 00:21:30;;;;;;;1.20;0.73;;;9.40;99.90;;;;;;5030954;28;20119;-57
2022/04/22 00:23:57;;;;;;;1.10;0.70;;;9.40;99.90;;;;;;5034864;28;20471;-59
2022/04/22 00:26:24;;;;;;;1.15;0.70;;;9.40;99.90;;;;;;5026475;28;20681;-58
2022/04/22 00:28:51;;;;;;;1.00;0.60;;;9.40;99.90;;;;;;5023970;28;20087;-59
2022/04/22 00:31:18;;;;;;;2.25;0.90;;;9.40;99.90;;;;;;5031979;28;20194;-58
2022/04/22 00:33:45;;;;;;;1.85;0.90;;;9.40;99.90;;;;;;5031840;28;20041;-58
2022/04/22 00:36:12;;;;;;;1.13;0.70;;;9.30;99.90;;;;;;5028594;28;20136;-58
2022/04/22 00:38:39;;;;;;;0.75;0.63;;;9.30;99.90;;;;;;5028182;28;20144;-58
2022/04/22 00:41:05;;;;;;;1.60;0.82;;;9.40;99.90;;;;;;5036477;28;20053;-57
2022/04/22 00:43:43;;;;;;;1.25;0.88;;;9.30;99.90;;;;;;5034001;28;20060;-58
2022/04/22 00:46:10;;;;;;;1.25;0.85;;;9.30;99.90;;;;;;5029798;28;20088;-59
2022/04/22 00:48:37;;;;;;;1.20;0.73;;;9.30;99.90;;;;;;5034412;28;20042;-59
2022/04/22 00:51:07;;;;;;;2.75;1.00;;;9.30;99.90;;;;;;5033905;28;20180;-58
2022/04/22 00:53:35;;;;;;;1.45;1.02;;;9.40;99.90;;;;;;5029274;28;20069;-58
2022/04/22 00:56:06;;;;;;;1.40;0.90;;;9.40;99.90;;;;;;5028973;28;20241;-58
2022/04/22 00:58:36;;;;;;;2.13;1.15;;;9.50;99.90;;;;;;5027562;28;20508;-57
2022/04/22 01:01:02;;;;;;;1.92;0.80;;;9.50;99.90;;;;;;5028183;28;20126;-58
2022/04/22 01:03:29;;;;;;;1.38;1.00;;;9.50;99.90;;;;;;5026078;28;20148;-58
2022/04/22 01:11:27;;;;;;;2.63;1.20;;;9.60;99.90;;;;;;5029968;28;20061;-59
2022/04/22 01:13:54;;;;;;;2.85;1.30;;;9.60;99.90;;;;;;5032300;28;20140;-58
2022/04/22 01:16:22;;;;;;;2.03;1.50;;;9.60;99.90;;;;;;5026870;28;20141;-58
2022/04/22 01:18:49;;;;;;;2.15;1.25;;;9.60;99.90;;;;;;5025951;28;20050;-58
2022/04/22 01:21:16;;;;;;;2.40;1.35;;;9.70;99.90;;;;;;5031627;28;20137;-59
2022/04/22 01:23:43;;;;;;;2.92;2.00;;;9.70;99.90;;;;;;5028549;28;20128;-58
2022/04/22 01:26:10;;;;;;;2.15;1.10;;;9.70;99.90;;;;;;5026011;28;20107;-58
2022/04/22 01:28:37;;;;;;;3.38;1.90;;;9.70;99.90;;;;;;5027873;28;20081;-59
2022/04/22 01:31:04;;;;;;;2.80;1.40;;;9.80;99.90;;;;;;5024040;28;20051;-58
2022/04/22 01:33:31;;;;;;;2.38;1.33;;;9.80;99.90;;;;;;5026844;28;20044;-57
2022/04/22 01:35:58;;;;;;;2.90;1.40;;;9.80;99.90;;;;;;5028938;28;20147;-57
2022/04/22 01:38:24;;;;;;;1.88;1.20;;;9.90;99.90;;;;;;5028080;28;20726;-58
2022/04/22 01:40:51;;;;;;;1.52;0.88;;;9.90;99.90;;;;;;5028887;28;20081;-58
2022/04/22 01:43:18;;;;;;;2.75;1.08;;;9.90;99.90;;;;;;5032315;28;20108;-58
2022/04/22 01:45:45;;;;;;;2.40;1.42;;;10.00;99.90;;;;;;5035655;28;20646;-58
2022/04/22 01:48:12;;;;;;;2.35;1.40;;;10.00;99.90;;;;;;5035293;28;20412;-58
2022/04/22 01:50:38;;;;;;;2.00;1.30;;;10.00;99.90;;;;;;5034463;28;20649;-58
2022/04/22 01:53:06;;;;;;;1.83;1.33;;;10.10;99.90;;;;;;5032368;28;20251;-58
2022/04/22 01:55:34;;;;;;;2.50;1.60;;;10.10;99.90;;;;;;5036650;28;20049;-58
2022/04/22 01:58:01;;;;;;;2.33;1.20;;;10.10;99.90;;;;;;5034265;28;20069;-58
2022/04/22 02:00:28;;;;;;;2.08;1.40;;;10.20;99.90;;;;;;5035634;28;20057;-58
2022/04/22 02:02:55;;;;;;;1.80;1.30;;;10.20;99.90;;;;;;5029154;28;20636;-58
2022/04/22 02:05:22;;;;;;;2.75;1.52;;;10.20;99.90;;;;;;5029066;28;20042;-58
2022/04/22 02:07:48;;;;;;;3.15;2.05;;;10.20;99.90;;;;;;5027729;28;20132;-57
2022/04/22 02:10:15;;;;;;;3.22;1.60;;;10.10;99.90;;;;;;5029349;28;20954;-57
2022/04/22 02:12:42;;;;;;;2.13;1.50;;;10.20;99.90;;;;;;5028441;28;20144;-58
2022/04/22 02:15:09;;;;;;;1.90;1.25;;;10.10;99.90;;;;;;5028493;28;20045;-58
2022/04/22 02:17:35;;;;;;;2.67;1.30;;;10.10;99.90;;;;;;5027661;28;20489;-58
2022/04/22 02:20:03;;;;;;;2.95;1.50;;;10.00;99.90;;;;;;5028437;28;20045;-58
2022/04/22 02:22:30;;;;;;;2.47;1.50;;;10.00;99.90;;;;;;5031302;28;20132;-58
2022/04/22 02:25:00;;;;;;;2.95;1.73;;;9.90;99.90;;;;;;5028397;28;20041;-57
2022/04/22 02:30:12;;;;;;;2.90;1.60;;;9.80;99.90;;;;;;5035279;28;20063;-58
2022/04/22 02:32:39;;;;;;;3.45;1.85;;;9.70;99.90;;;;;;5027364;28;20127;-57
2022/04/22 02:35:06;;;;;;;2.90;1.80;;;9.70;99.90;;;;;;5029427;28;20171;-59
2022/04/22 02:37:33;;;;;;;2.92;1.70;;;9.60;99.90;;;;;;5028243;28;20443;-59
2022/04/22 02:40:00;;;;;;;2.83;1.92;;;9.60;99.90;;;;;;5027050;28;20144;-58
2022/04/22 02:45:26;;;;;;;3.33;2.00;;;9.50;99.90;;;;;;5029470;28;20128;-58
2022/04/22 02:47:56;;;;;;;2.70;2.08;;;9.50;99.90;;;;;;5032150;28;20045;-58
2022/04/22 02:50:23;;;;;;;3.53;1.92;;;9.50;99.90;;;;;;5028946;28;20056;-58
2022/04/22 02:52:50;;;;;;;3.58;2.35;;;9.50;99.90;;;;;;5028526;28;20049;-58
2022/04/22 02:55:17;;;;;;;4.28;2.67;;;9.50;99.90;;;;;;5036179;28;20143;-56
2022/04/22 02:57:44;;;;;;;4.60;2.40;;;9.60;99.90;;;;;;5034714;28;20041;-58
2022/04/22 03:00:12;;;;;;;2.90;1.95;;;9.60;99.90;;;;;;5013892;28;20116;-58
2022/04/22 03:02:40;;;;;;;3.20;1.88;;;9.60;99.90;;;;;;5031338;28;20081;-58
2022/04/22 03:05:07;;;;;;;3.55;2.60;;;9.70;99.90;;;;;;5029160;28;20056;-58
2022/04/22 03:07:34;;;;;;;2.35;1.75;;;9.70;99.90;;;;;;5027536;28;20080;-58
2022/04/22 03:10:01;;;;;;;3.38;2.00;;;9.70;99.90;;;;;;5035954;28;20076;-58
2022/04/22 03:12:28;;;;;;;3.10;2.33;;;9.70;99.90;;;;;;5032244;28;20648;-58
2022/04/22 03:14:56;;;;;;;2.55;1.90;;;9.70;99.90;;;;;;5035307;28;20049;-61
2022/04/22 03:17:23;;;;;;;2.78;2.10;;;9.80;99.90;;;;;;5034462;28;20787;-59
2022/04/22 03:19:50;;;;;;;3.97;2.22;;;9.80;99.90;;;;;;5035421;28;20056;-59
2022/04/22 03:22:16;;;;;;;4.78;2.50;;;9.70;99.90;;;;;;5030722;28;20152;-59
2022/04/22 03:24:43;;;;;;;2.78;2.25;;;9.70;99.90;;;;;;5028037;28;20140;-58
2022/04/22 03:27:10;;;;;;;2.92;2.05;;;9.70;99.90;;;;;;5027852;28;20045;-58
2022/04/22 03:29:37;;;;;;;2.50;1.90;;;9.60;99.90;;;;;;5028723;28;20084;-59
2022/04/22 03:32:05;;;;;;;2.80;1.90;;;9.60;99.90;;;;;;5027539;28;20082;-58
2022/04/22 03:34:32;;;;;;;4.10;2.53;;;9.60;99.90;;;;;;5026597;28;20439;-58
2022/04/22 03:37:00;;;;;;;3.53;1.73;;;9.50;99.90;;;;;;5025251;28;20456;-58
2022/04/22 03:39:27;;;;;;;2.20;1.75;;;9.50;99.90;;;;;;5034048;28;20081;-59
2022/04/22 03:41:53;;;;;;;2.60;1.80;;;9.40;99.90;;;;;;5023313;28;20645;-58
2022/04/22 03:44:20;;;;;;;2.53;1.60;;;9.50;99.90;;;;;;5036934;28;20154;-58
2022/04/22 03:46:47;;;;;;;3.55;1.95;;;9.50;99.90;;;;;;5038847;28;20049;-58
2022/04/22 03:49:13;;;;;;;2.33;1.80;;;9.50;99.90;;;;;;5038976;28;20081;-58
2022/04/22 03:51:40;;;;;;;3.38;1.92;;;9.50;99.90;;;;;;5035405;28;20140;-59
2022/04/22 03:54:07;;;;;;;3.42;2.17;;;9.50;99.90;;;;;;5032197;28;20059;-58
2022/04/22 03:59:19;;;;;;;2.58;1.67;;;9.60;99.90;;;;;;5037484;28;20131;-58
2022/04/22 04:01:46;;;;;;;2.13;1.75;;;9.60;99.90;;;;;;5037449;28;20742;-59
2022/04/22 04:04:12;;;;;;;2.83;1.98;;;9.70;99.90;;;;;;5037906;28;20132;-58
2022/04/22 04:06:39;;;;;;;2.35;1.73;;;9.70;99.90;;;;;;5037989;28;20785;-58
2022/04/22 04:17:22;;;;;;;2.45;1.45;;;9.90;99.90;;;;;;5027722;28;20148;-60
2022/04/22 04:25:20;;;;;;;2.20;1.60;;;10.00;99.90;;;;;;5038391;28;20220;-58
2022/04/22 04:27:47;;;;;;;2.88;2.00;;;10.00;99.90;;;;;;5038051;28;20529;-58
2022/04/22 04:30:14;;;;;;;1.90;1.50;;;9.90;99.90;;;;;;5031536;28;20136;-57
2022/04/22 04:32:41;;;;;;;2.08;1.58;;;9.90;99.90;;;;;;5032205;28;20269;-59
2022/04/22 04:35:08;;;;;;;3.33;1.30;;;10.00;99.90;;;;;;5031724;28;20041;-58
2022/04/22 04:37:42;;;;;;;2.75;2.15;;;10.00;99.90;;;;;;5031699;28;20139;-59
2022/04/22 04:40:09;;;;;;;2.95;1.90;;;9.90;99.90;;;;;;5034172;28;20600;-58
2022/04/22 04:42:36;;;;;;;3.22;1.95;;;10.00;99.90;;;;;;5032199;28;20084;-57
2022/04/22 04:45:04;;;;;;;3.17;2.00;;;9.90;99.90;;;;;;5036973;28;20470;-58
2022/04/22 04:47:38;;;;;;;2.58;1.88;;;10.00;99.90;;;;;;5037325;28;20059;-58
2022/04/22 04:50:05;;;;;;;2.90;1.92;;;10.00;99.90;;;;;;5036188;28;20076;-58
2022/04/22 04:52:33;;;;;;;2.65;1.80;;;10.00;99.90;;;;;;5033810;28;20095;-58
2022/04/22 04:55:00;;;;;;;2.45;1.90;;;10.00;99.90;;;;;;5036237;28;20205;-57
2022/04/22 04:57:26;;;;;;;4.32;2.10;;;10.00;99.90;;;;;;5035595;28;20060;-58
2022/04/22 04:59:53;;;;;;;3.28;2.00;;;10.10;99.90;;;;;;5036102;28;20176;-58
2022/04/22 05:02:20;;;;;;;3.60;2.45;;;10.10;99.90;;;;;;5016689;28;20133;-58
2022/04/22 05:04:46;;;;;;;2.55;1.80;;;10.10;99.90;;;;;;5003730;28;20198;-59
2022/04/22 05:07:13;;;;;;;2.25;1.95;;;10.20;99.90;;;;;;5005140;28;20068;-58
2022/04/22 05:09:40;;;;;;;2.97;1.90;;;10.20;99.90;;;;;;5024483;28;20405;-57
2022/04/22 05:12:07;;;;;;;2.35;1.67;;;10.30;99.90;;;;;;5022861;28;20145;-58
2022/04/22 05:14:35;;;;;;;3.90;2.88;;;10.30;99.90;;;;;;5027544;28;20925;-58
2022/04/22 05:17:02;;;;;;;4.50;2.83;;;10.30;99.90;;;;;;5024827;28;20488;-58
2022/04/22 05:19:29;;;;;;;3.75;3.05;;;10.30;99.90;;;;;;5033841;28;20127;-58
2022/04/22 05:21:56;;;;;;;3.72;2.80;;;10.30;99.90;;;;;;5031658;28;20045;-59
2022/04/22 05:24:23;;;;;;;5.20;3.10;;;10.30;99.90;;;;;;5034051;28;20073;-59
2022/04/22 05:26:50;;;;;;;5.13;3.53;;;10.30;99.90;;;;;;5027788;28;20141;-58
2022/04/22 05:34:47;;;;;;;3.03;2.50;;;10.50;99.90;;;;;;5025068;28;20136;-59
2022/04/22 05:37:14;;;;;;;3.83;2.70;;;10.50;99.90;;;;;;5026587;28;20053;-55
2022/04/22 05:39:43;;;;;;;4.20;2.83;;;10.50;99.90;;;;;;5026294;28;20049;-58
2022/04/22 05:42:10;;;;;;;3.47;2.65;;;10.50;99.90;;;;;;5019529;28;20411;-58
2022/04/22 05:44:37;;;;;;;4.45;2.50;;;10.60;99.90;;;;;;5024866;28;20164;-58
2022/04/22 05:47:06;;;;;;;4.53;3.15;;;10.60;99.90;;;;;;4996161;28;20049;-58
2022/04/22 05:49:32;;;;;;;4.20;3.10;;;10.70;99.90;;;;;;4996124;28;20151;-59
2022/04/22 05:51:59;;;;;;;2.85;2.20;;;10.70;99.90;;;;;;5005235;28;20071;-57
2022/04/22 05:54:26;;;;;;;3.78;3.08;;;10.80;99.90;;;;;;5004273;28;20141;-57
2022/04/22 05:56:52;;;;;;;4.47;3.17;;;10.80;99.90;;;;;;4996405;28;20045;-58
2022/04/22 05:59:19;;;;;;;4.57;3.42;;;10.90;99.90;;;;;;4997559;28;20416;-58
2022/04/22 06:01:46;;;;;;;5.57;3.53;;;10.90;99.90;;;;;;5007532;28;20049;-58
2022/04/22 06:04:13;;;;;;;6.35;4.10;;;11.00;99.90;;;;;;5007200;28;20050;-58
2022/04/22 06:06:39;;;;;;;5.88;4.45;;;11.00;99.90;;;;;;4995893;28;20518;-59
2022/04/22 06:11:58;;;;;;;6.43;4.72;;;11.00;99.90;;;;;;5003593;28;20582;-58
2022/04/22 06:14:25;;;;;;;7.25;4.70;;;11.00;99.90;;;;;;5003639;28;20129;-58
2022/04/22 06:16:52;;;;;;;5.88;4.20;;;11.10;99.90;;;;;;5006518;28;20704;-60
2022/04/22 06:19:19;;;;;;;8.38;4.45;;;11.20;99.90;;;;;;4994786;28;20077;-59
2022/04/22 06:21:46;;;;;;;5.88;4.35;;;11.30;99.90;;;;;;5003571;28;20593;-58
2022/04/22 06:24:13;;;;;;;5.82;3.97;;;11.50;99.90;;;;;;5011570;28;20533;-58
2022/04/22 06:26:39;;;;;;;6.25;4.78;;;11.70;99.90;;;;;;5013370;28;20058;-58
2022/04/22 06:29:06;;;;;;;5.63;4.72;;;11.70;99.90;;;;;;4995102;28;20068;-58
2022/04/22 06:31:35;;;;;;;6.25;4.90;;;11.70;99.90;;;;;;4999851;28;20161;-58
2022/04/22 06:34:02;;;;;;;6.38;4.57;;;11.60;99.90;;;;;;5009001;28;20049;-60
2022/04/22 06:36:29;;;;;;;8.70;6.43;;;11.70;99.90;;;;;;4997710;28;20141;-59
2022/04/22 06:38:59;;;;;;;6.00;4.80;;;11.60;99.90;;;;;;5006837;28;20146;-59
2022/04/22 06:46:58;;;;;;;7.18;5.53;;;11.70;99.90;;;;;;5018200;28;20075;-58
2022/04/22 06:49:25;;;;;;;6.75;5.20;;;11.70;99.90;;;;;;5024537;28;20652;-58
2022/04/22 06:51:52;;;;;;;7.97;5.78;;;11.70;99.90;;;;;;5024295;28;20053;-59
2022/04/22 06:54:19;;;;;;;9.93;5.60;;;11.70;99.90;;;;;;5016425;28;20591;-59
2022/04/22 06:56:48;;;;;;;5.53;4.68;;;11.80;99.90;;;;;;5019543;28;20079;-59
2022/04/22 06:59:19;;;;;;;6.13;4.63;;;11.80;99.90;;;;;;5035258;28;20045;-59
2022/04/22 07:01:46;;;;;;;6.50;4.60;;;11.80;99.90;;;;;;5039380;28;20072;-59
2022/04/22 07:04:13;;;;;;;7.57;5.18;;;11.90;99.90;;;;;;5020441;28;20603;-59
2022/04/22 07:06:41;;;;;;;5.50;4.65;;;11.90;99.90;;;;;;5019232;28;20140;-58
2022/04/22 07:09:10;;;;;;;6.10;4.85;;;11.90;99.90;;;;;;5009273;28;20049;-59
2022/04/22 07:11:37;;;;;;;7.43;5.72;;;11.90;99.90;;;;;;5008021;28;20457;-58
2022/04/22 07:14:04;;;;;;;5.88;5.00;;;11.90;99.90;;;;;;5016885;28;20069;-59
2022/04/22 07:16:31;;;;;;;6.72;5.50;;;11.90;99.90;;;;;;5003962;28;20077;-60
2022/04/22 07:18:59;;;;;;;7.75;6.50;;;11.90;99.90;;;;;;5022432;28;20053;-60
2022/04/22 07:21:26;;;;;;;8.73;5.82;;;11.90;99.90;;;;;;5016093;28;20061;-59
2022/04/22 07:23:55;;;;;;;6.35;5.38;;;11.90;99.90;;;;;;5031333;28;20598;-60
2022/04/22 07:26:22;;;;;;;5.30;4.80;;;12.10;99.90;;;;;;5017078;28;20052;-60
2022/04/22 07:28:49;;;;;;;5.95;4.88;;;12.20;99.90;;;;;;5021793;28;20081;-59
2022/04/22 07:31:19;;;;;;;7.88;6.30;;;12.20;99.90;;;;;;5015782;28;20108;-60
2022/04/22 07:33:47;;;;;;;6.65;4.95;;;12.20;99.90;;;;;;5019388;28;20073;-60
2022/04/22 07:36:14;;;;;;;5.55;4.38;;;12.30;99.90;;;;;;5006295;28;20125;-60
2022/04/22 07:38:41;;;;;;;6.28;4.97;;;12.40;99.90;;;;;;5009863;28;20160;-61
2022/04/22 07:41:08;;;;;;;6.60;5.05;;;12.50;99.90;;;;;;5005496;28;20145;-59
2022/04/22 07:49:05;;;;;;;6.53;4.90;;;12.60;99.90;;;;;;5020015;28;20049;-60
2022/04/22 07:51:32;;;;;;;7.45;5.35;;;12.60;99.90;;;;;;5011371;28;20511;-59
2022/04/22 07:54:00;;;;;;;5.45;4.47;;;12.60;99.90;;;;;;5016397;28;20140;-60
2022/04/22 07:56:27;;;;;;;6.68;4.70;;;12.60;99.90;;;;;;5005332;28;20520;-59
2022/04/22 07:58:56;;;;;;;5.32;4.82;;;12.60;99.90;;;;;;5007063;28;20115;-60
2022/04/22 08:01:23;;;;;;;4.80;4.18;;;12.70;99.90;;;;;;5003546;28;20505;-60
2022/04/22 08:03:50;;;;;;;4.53;3.78;;;12.90;99.90;;;;;;5020874;28;20064;-59
2022/04/22 08:06:17;;;;;;;3.80;3.20;;;13.10;99.90;;;;;;5017360;28;20111;-59
2022/04/22 08:08:44;;;;;;;4.40;3.17;;;13.30;99.90;;;;;;5008959;28;20085;-60
2022/04/22 08:11:10;;;;;;;4.88;3.80;;;13.40;99.90;;;;;;5024623;28;20099;-60
2022/04/22 08:13:37;;;;;;;5.88;4.80;;;13.40;99.90;;;;;;5017509;28;20053;-59
2022/04/22 08:16:04;;;;;;;5.95;4.82;;;13.30;99.90;;;;;;5006747;28;20971;-60
2022/04/22 08:18:31;;;;;;;6.55;5.10;;;13.20;99.90;;;;;;5004134;28;20054;-60
2022/04/22 08:20:57;;;;;;;6.68;5.15;;;13.20;99.90;;;;;;5018529;28;20128;-60
2022/04/22 08:23:24;;;;;;;5.85;4.63;;;13.20;99.90;;;;;;5022558;28;20073;-60
2022/04/22 08:25:51;;;;;;;5.60;5.00;;;13.40;99.90;;;;;;5019707;28;20136;-60
2022/04/22 08:28:18;;;;;;;4.93;4.00;;;13.60;99.90;;;;;;5023048;28;20080;-59
2022/04/22 08:30:44;;;;;;;4.63;3.90;;;13.70;99.90;;;;;;5004744;28;20061;-60
2022/04/22 08:33:12;;;;;;;6.38;4.53;;;13.60;99.90;;;;;;5020855;28;20049;-60
2022/04/22 08:35:39;;;;;;;4.25;3.72;;;13.50;99.90;;;;;;5031032;28;20430;-60
2022/04/22 08:38:07;;;;;;;5.85;4.47;;;13.50;99.90;;;;;;5010856;28;20057;-60
2022/04/22 08:40:37;;;;;;;5.90;5.30;;;13.60;99.90;;;;;;5012285;28;20041;-58
2022/04/22 08:43:05;;;;;;;6.10;5.03;;;13.60;99.90;;;;;;5022311;28;20057;-59
2022/04/22 08:45:33;;;;;;;6.40;5.20;;;13.60;99.90;;;;;;5018759;28;20563;-60
2022/04/22 08:50:49;;;;;;;5.03;4.32;;;13.60;99.90;;;;;;5005020;28;20516;-60
2022/04/22 08:53:21;;;;;;;5.15;4.65;;;13.70;99.90;;;;;;5016276;28;20163;-60
2022/04/22 08:55:50;;;;;;;5.43;4.93;;;13.80;99.90;;;;;;5025056;28;20082;-60
2022/04/22 08:58:17;;;;;;;6.22;4.40;;;13.90;99.90;;;;;;5017239;28;20460;-60
2022/04/22 09:00:44;;;;;;;5.78;4.50;;;14.00;99.90;;;;;;5017278;28;20128;-59
2022/04/22 09:03:10;;;;;;;6.05;4.50;;;14.00;99.90;;;;;;5016941;28;20502;-60
2022/04/22 09:05:37;;;;;;;4.45;3.88;;;14.10;99.90;;;;;;5012641;28;20100;-60
2022/04/22 09:08:06;;;;;;;6.05;4.80;;;14.10;99.90;;;;;;5014768;28;20052;-60
2022/04/22 09:10:35;;;;;;;4.63;4.15;;;14.00;99.90;;;;;;5024293;28;20478;-60
2022/04/22 09:13:02;;;;;;;4.05;3.45;;;14.10;99.90;;;;;;5025546;28;20119;-60
2022/04/22 09:15:31;;;;;;;4.82;4.10;;;14.20;99.90;;;;;;5026495;28;20128;-60
2022/04/22 09:18:18;;;;;;;4.05;3.65;;;14.30;99.90;;;;;;5024900;28;20397;-60
2022/04/22 09:20:46;;;;;;;4.53;3.65;;;14.20;99.90;;;;;;5025145;28;20224;-60
2022/04/22 09:23:33;;;;;;;5.35;3.97;;;14.10;99.90;;;;;;5024545;28;20129;-60
2022/04/22 09:26:00;;;;;;;4.90;3.40;;;14.10;99.90;;;;;;5023068;28;20124;-60
2022/04/22 09:28:27;;;;;;;4.82;3.13;;;14.10;99.90;;;;;;5023885;28;20060;-60
2022/04/22 09:30:58;;;;;;;3.47;3.00;;;14.20;99.90;;;;;;5024324;28;20045;-60
2022/04/22 09:33:25;;;;;;;3.60;2.78;;;14.30;99.90;;;;;;5023611;28;20061;-60
2022/04/22 09:44:29;;;;;;;4.97;3.70;;;14.30;99.90;;;;;;5020569;28;20488;-60
2022/04/22 09:47:11;;;;;;;6.00;3.70;;;14.20;99.90;;;;;;5020514;28;20081;-60
2022/04/22 09:49:43;;;;;;;4.72;3.15;;;14.20;99.90;;;;;;5021073;28;20533;-60
2022/04/22 09:52:10;;;;;;;5.45;4.05;;;14.30;99.90;;;;;;5023992;28;20271;-60
2022/04/22 09:54:39;;;;;;;4.50;3.42;;;14.50;99.90;;;;;;5025402;28;20092;-60
2022/04/22 09:57:26;;;;;;;4.53;3.90;;;14.50;99.90;;;;;;5025652;28;20052;-60
2022/04/22 09:59:53;;;;;;;4.40;3.22;;;14.70;99.90;;;;;;5024620;28;20091;-60
2022/04/22 10:02:23;;;;;;;5.57;4.22;;;14.70;99.90;;;;;;5023982;28;20136;-60
2022/04/22 10:04:50;;;;;;;4.88;3.95;;;14.70;99.90;;;;;;5024940;28;20103;-60
2022/04/22 10:07:17;;;;;;;4.93;4.43;;;14.80;99.90;;;;;;5023673;28;20468;-60
2022/04/22 10:09:48;;;;;;;3.95;3.60;;;14.70;99.90;;;;;;5025890;28;20045;-60
2022/04/22 10:12:15;;;;;;;6.28;4.03;;;15.00;99.90;;;;;;5023836;28;20137;-60
2022/04/22 10:14:43;;;;;;;6.30;4.60;;;15.10;99.90;;;;;;5023783;28;20076;-60
2022/04/22 10:17:11;;;;;;;5.93;5.05;;;15.20;99.90;;;;;;5025029;28;20091;-60
2022/04/22 10:19:38;;;;;;;6.65;4.80;;;15.20;99.90;;;;;;5023863;28;20049;-60
2022/04/22 10:22:07;;;;;;;5.10;4.00;;;15.40;99.90;;;;;;5023246;28;20050;-59
2022/04/22 10:24:34;;;;;;;6.15;4.75;;;15.60;99.90;;;;;;5021864;28;20068;-59
2022/04/22 10:27:02;;;;;;;4.55;3.88;;;15.80;99.90;;;;;;5021043;28;20101;-59
2022/04/22 10:29:48;;;;;;;4.93;3.63;;;16.00;99.90;;;;;;5024493;28;20053;-59
2022/04/22 10:32:15;;;;;;;4.22;3.53;;;16.20;99.90;;;;;;5022628;28;20045;-59
2022/04/22 10:34:43;;;;;;;4.70;4.18;;;16.40;99.90;;;;;;5023532;28;20080;-59
2022/04/22 10:37:20;;;;;;;5.53;4.95;;;16.30;99.90;;;;;;5024752;28;20185;-59
2022/04/22 10:39:50;;;;;;;7.13;4.90;;;16.30;99.90;;;;;;5025001;28;20143;-59
2022/04/22 10:42:33;;;;;;;5.50;4.45;;;16.30;99.90;;;;;;5023357;28;20060;-59
2022/04/22 10:47:51;;;;;;;4.80;4.07;;;16.30;99.90;;;;;;5017033;28;20061;-59
2022/04/22 10:50:41;;;;;;;4.38;3.10;;;16.00;99.90;;;;;;5001799;28;20054;-59
2022/04/22 10:53:09;;;;;;;4.28;2.90;;;15.90;99.90;;;;;;5014534;28;20276;-59
2022/04/22 10:55:37;;;;;;;3.40;3.10;;;16.00;99.90;;;;;;5022194;28;20486;-59
2022/04/22 10:58:24;;;;;;;4.47;3.22;;;16.00;99.90;;;;;;5021041;28;20060;-59
2022/04/22 11:00:55;;;;;;;5.03;4.10;;;15.80;99.90;;;;;;5014718;28;20133;-59
2022/04/22 11:03:34;;;;;;;4.82;3.20;;;15.60;99.90;;;;;;5009741;28;20538;-59
2022/04/22 11:06:02;;;;;;;3.80;3.25;;;15.80;99.90;;;;;;5016686;28;20049;-60
2022/04/22 11:08:31;;;;;;;5.15;3.45;;;15.80;99.90;;;;;;5008160;28;20045;-60
2022/04/22 11:11:02;;;;;;;5.60;4.32;;;15.80;99.90;;;;;;5009472;28;20152;-60
2022/04/22 11:13:33;;;;;;;5.28;3.60;;;15.40;99.90;;;;;;5019412;28;20460;-60
2022/04/22 11:16:19;;;;;;;5.15;3.38;;;15.40;99.90;;;;;;5030293;28;20132;-60
2022/04/22 11:19:10;;;;;;;4.40;3.40;;;15.40;99.90;;;;;;5036874;28;20118;-60
2022/04/22 11:21:37;;;;;;;4.78;3.58;;;15.40;99.90;;;;;;5016748;28;20462;-60
2022/04/22 11:24:14;;;;;;;4.15;3.60;;;15.30;99.90;;;;;;5005079;28;20409;-59
2022/04/22 11:26:41;;;;;;;4.10;3.08;;;15.50;99.90;;;;;;5002013;28;20053;-60
2022/04/22 11:29:09;;;;;;;4.57;3.28;;;15.60;99.90;;;;;;5002622;28;20057;-59
2022/04/22 11:31:35;;;;;;;5.05;3.15;;;15.60;99.90;;;;;;5037767;28;20136;-59
2022/04/22 11:34:16;;;;;;;3.85;3.00;;;15.60;99.90;;;;;;5025228;28;20057;-59
2022/04/22 11:36:44;;;;;;;3.88;2.83;;;15.80;99.90;;;;;;5005334;28;20581;-60
2022/04/22 11:39:17;;;;;;;4.63;3.60;;;15.90;99.90;;;;;;5007666;28;20137;-60
2022/04/22 11:41:57;;;;;;;4.18;3.40;;;15.70;99.90;;;;;;5016834;28;20438;-60
2022/04/22 11:44:24;;;;;;;4.93;3.17;;;15.70;99.90;;;;;;5017978;28;20046;-60
2022/04/22 11:46:51;;;;;;;5.68;4.07;;;15.90;99.90;;;;;;5007891;28;20198;-59
2022/04/22 11:49:21;;;;;;;6.13;3.30;;;16.00;99.90;;;;;;5017985;28;20050;-60
2022/04/22 11:51:52;;;;;;;3.08;2.42;;;16.00;99.90;;;;;;5013634;28;20184;-60
2022/04/22 11:54:23;;;;;;;3.55;2.65;;;16.20;99.90;;;;;;5014731;28;20465;-60
2022/04/22 11:56:50;;;;;;;4.60;3.38;;;16.20;99.90;;;;;;5011410;28;20054;-58
2022/04/22 11:59:22;;;;;;;3.83;2.72;;;16.30;99.90;;;;;;5006158;28;20087;-59
2022/04/22 12:10:09;;;;;;;4.38;3.28;;;17.60;99.90;;;;;;5017966;28;20053;-60
2022/04/22 12:12:35;;;;;;;5.95;3.35;;;18.40;99.90;;;;;;5019587;28;20141;-60
2022/04/22 12:15:03;;;;;;;3.50;2.90;;;18.80;99.80;;;;;;5019254;28;20049;-59
2022/04/22 12:17:30;;;;;;;4.47;3.67;;;18.80;98.90;;;;;;5009177;28;20196;-59
2022/04/22 12:19:57;;;;;;;3.40;3.03;;;18.80;99.10;;;;;;5001342;28;20079;-59
2022/04/22 12:22:24;;;;;;;4.55;2.92;;;19.00;98.90;;;;;;5001682;28;20129;-60
2022/04/22 12:25:19;;;;;;;3.80;3.30;;;18.90;98.70;;;;;;5021069;28;20135;-59
2022/04/22 12:28:06;;;;;;;4.30;3.75;;;18.50;97.90;;;;;;5020501;28;20049;-59
2022/04/22 12:30:40;;;;;;;4.22;3.72;;;18.60;98.00;;;;;;5019667;28;20140;-59
2022/04/22 12:33:08;;;;;;;4.35;3.60;;;19.00;97.70;;;;;;5019340;28;20436;-60
2022/04/22 12:35:34;;;;;;;4.82;4.10;;;19.40;97.00;;;;;;5003073;28;20125;-59
2022/04/22 12:38:06;;;;;;;4.38;3.97;;;19.80;96.40;;;;;;5020048;28;20137;-59
2022/04/22 12:40:49;;;;;;;4.67;3.40;;;19.90;96.70;;;;;;5022966;28;20276;-59
2022/04/22 12:43:28;;;;;;;;;;;19.90;96.30;;;;;;5020325;28;20656;-60
2022/04/22 12:54:21;;;;;;;4.30;3.42;;;20.10;95.70;;;;;;5019251;28;20460;-60
2022/04/22 12:56:54;;;;;;;6.80;4.28;;;20.60;95.30;;;;;;5008165;28;20084;-59
2022/04/22 12:59:21;;;;;;;4.25;3.53;;;20.60;95.00;;;;;;5010495;28;20177;-59
2022/04/22 13:01:49;;;;;;;5.40;3.80;;;20.70;95.00;;;;;;5007676;28;20053;-60
2022/04/22 13:04:20;;;;;;;4.50;3.42;;;20.90;94.50;;;;;;5006043;28;20041;-60
2022/04/22 13:06:47;;;;;;;3.63;3.13;;;21.20;94.70;;;;;;5012504;28;20045;-60
2022/04/22 13:09:15;;;;;;;3.75;2.42;;;21.50;94.20;;;;;;5019158;28;20068;-60
2022/04/22 13:11:46;;;;;;;4.57;3.08;;;21.50;94.10;;;;;;5020117;28;20124;-60
2022/04/22 13:14:13;;;;;;;4.40;3.15;;;21.40;94.00;;;;;;5016955;28;20146;-60
2022/04/22 13:16:39;;;;;;;3.28;2.65;;;21.30;94.10;;;;;;5014458;28;20138;-60
2022/04/22 13:19:11;;;;;;;3.97;2.90;;;21.50;94.00;;;;;;5017573;28;20282;-60
2022/04/22 13:21:39;;;;;;;4.10;3.00;;;21.60;93.80;;;;;;5015845;28;20060;-60
2022/04/22 13:24:06;;;;;;;5.53;3.88;;;21.40;94.20;;;;;;5009230;28;20268;-60
2022/04/22 13:26:33;;;;;;;4.82;3.33;;;21.10;94.10;;;;;;4997092;28;20223;-60
2022/04/22 13:28:59;;;;;;;5.00;3.67;;;21.20;94.10;;;;;;4996938;28;20136;-60
2022/04/22 13:31:26;;;;;;;4.88;2.83;;;21.60;93.50;;;;;;4997080;28;20071;-60
2022/04/22 13:33:53;;;;;;;5.38;3.15;;;21.80;92.90;;;;;;5010747;28;20488;-60
2022/04/22 13:36:20;;;;;;;5.13;3.15;;;21.80;92.70;;;;;;5016165;28;20119;-60
2022/04/22 13:38:48;;;;;;;4.13;3.28;;;21.90;92.80;;;;;;5015524;28;20095;-60
2022/04/22 13:41:15;;;;;;;2.95;2.38;;;22.00;92.50;;;;;;5015353;28;20217;-59
2022/04/22 13:43:43;;;;;;;3.42;2.17;;;22.30;92.40;;;;;;5015205;28;20156;-60
2022/04/22 13:54:26;;;;;;;4.95;3.10;;;22.20;91.30;;;;;;5006008;28;20152;-59
2022/04/22 13:56:53;;;;;;;4.50;2.60;;;22.20;91.40;;;;;;4995899;28;20426;-60
2022/04/22 13:59:21;;;;;;;3.67;2.75;;;22.70;91.00;;;;;;4997003;28;20136;-60
2022/04/22 14:01:47;;;;;;;4.68;3.33;;;23.00;90.30;;;;;;4996122;28;20708;-60
2022/04/22 14:04:14;;;;;;;4.32;2.72;;;23.20;90.00;;;;;;5003315;28;20052;-60
2022/04/22 14:06:42;;;;;;;3.88;2.80;;;22.80;89.20;;;;;;5013143;28;20073;-60
2022/04/22 14:09:09;;;;;;;3.83;2.63;;;23.10;89.30;;;;;;5014314;28;20153;-60
2022/04/22 14:11:36;;;;;;;4.75;2.33;;;23.40;88.90;;;;;;5011043;28;20130;-60
2022/04/22 14:14:03;;;;;;;3.38;2.50;;;23.40;88.00;;;;;;5002804;28;20176;-61
2022/04/22 14:16:30;;;;;;;3.08;2.60;;;23.40;87.50;;;;;;5005613;28;20041;-61
2022/04/22 14:18:57;;;;;;;3.63;2.60;;;23.40;88.70;;;;;;5006837;28;20058;-60
2022/04/22 14:21:24;;;;;;;3.72;2.78;;;23.90;87.20;;;;;;5004302;28;20063;-60
2022/04/22 14:23:54;;;;;;;6.40;3.20;;;23.70;87.20;;;;;;5005041;28;20079;-60